createdAt,value
2018-02-18T00:02:00.850Z,98841.41
2018-02-18T00:04:28.314Z,98843.20
2018-02-18T00:06:57.601Z,98840.51
2018-02-18T00:09:25.329Z,98845.11
2018-02-18T00:11:52.792Z,98841.44
2018-02-18T00:14:24.181Z,98849.37
2018-02-18T00:16:52.017Z,98845.52
2018-02-18T00:19:19.476Z,98845.62
2018-02-18T00:21:46.945Z,98843.41
2018-02-18T00:24:14.705Z,98846.60
2018-02-18T00:26:42.189Z,98846.98
2018-02-18T00:29:09.645Z,98855.12
2018-02-18T00:31:38.318Z,98848.83
2018-02-18T00:34:05.782Z,98865.09
2018-02-18T00:36:33.241Z,98864.36
2018-02-18T00:39:00.950Z,98851.17
2018-02-18T00:41:28.406Z,98861.16
2018-02-18T00:43:55.860Z,98862.99
2018-02-18T00:46:23.684Z,98879.51
2018-02-18T00:48:51.136Z,98880.49
2018-02-18T00:51:18.593Z,98885.30
2018-02-18T00:53:46.374Z,98888.05
2018-02-18T00:56:13.840Z,98890.59
2018-02-18T00:58:41.317Z,98898.52
2018-02-18T01:01:09.370Z,98904.13
2018-02-18T01:03:36.837Z,98903.33
2018-02-18T01:06:04.301Z,98892.52
2018-02-18T01:08:32.665Z,98888.20
2018-02-18T01:11:00.125Z,98886.11
2018-02-18T01:13:27.585Z,98891.33
2018-02-18T01:15:55.605Z,98894.78
2018-02-18T01:18:23.068Z,98898.36
2018-02-18T01:20:50.533Z,98903.08
2018-02-18T01:23:18.226Z,98902.02
2018-02-18T01:25:49.477Z,98905.09
2018-02-18T01:28:16.937Z,98915.00
2018-02-18T01:30:44.711Z,98918.55
2018-02-18T01:33:12.175Z,98925.61
2018-02-18T01:35:39.635Z,98931.70
2018-02-18T01:38:07.326Z,98940.10
2018-02-18T01:40:34.785Z,98943.72
2018-02-18T01:43:02.258Z,98945.34
2018-02-18T01:45:30.406Z,98939.36
2018-02-18T01:47:57.865Z,98937.31
2018-02-18T01:50:37.320Z,98948.73
2018-02-18T01:53:04.776Z,98947.97
2018-02-18T01:55:32.245Z,98945.45
2018-02-18T01:58:00.034Z,98947.11
2018-02-18T02:00:27.497Z,98950.84
2018-02-18T02:02:54.955Z,98958.26
2018-02-18T02:05:22.681Z,98964.08
2018-02-18T02:07:50.139Z,98965.76
2018-02-18T02:10:17.673Z,98966.08
2018-02-18T02:12:45.358Z,98971.36
2018-02-18T02:15:12.821Z,98976.91
2018-02-18T02:17:40.289Z,98974.54
2018-02-18T02:20:08.048Z,98964.19
2018-02-18T02:22:35.509Z,98972.44
2018-02-18T02:25:02.982Z,98983.05
2018-02-18T02:27:30.736Z,98975.67
2018-02-18T02:29:58.198Z,98980.41
2018-02-18T02:32:25.662Z,98984.52
2018-02-18T02:34:53.417Z,98982.42
2018-02-18T02:37:20.881Z,98986.45
2018-02-18T02:39:48.347Z,98984.78
2018-02-18T02:42:16.120Z,98988.22
2018-02-18T02:44:43.581Z,98986.83
2018-02-18T02:47:11.038Z,98988.44
2018-02-18T02:49:38.823Z,98990.40
2018-02-18T02:52:06.300Z,98991.09
2018-02-18T02:54:33.760Z,98998.31
2018-02-18T02:57:01.484Z,98998.16
2018-02-18T02:59:28.955Z,98997.78
2018-02-18T03:01:56.420Z,98997.13
2018-02-18T03:04:24.183Z,98999.88
2018-02-18T03:06:51.654Z,99002.67
2018-02-18T03:09:19.109Z,99000.20
2018-02-18T03:11:46.861Z,99000.16
2018-02-18T03:14:14.322Z,99008.86
2018-02-18T03:16:41.780Z,99010.16
2018-02-18T03:19:10.153Z,99006.82
2018-02-18T03:21:37.616Z,99012.33
2018-02-18T03:24:05.085Z,99016.78
2018-02-18T03:26:32.846Z,99024.83
2018-02-18T03:29:00.309Z,99028.76
2018-02-18T03:31:27.769Z,99031.44
2018-02-18T03:33:55.534Z,99031.58
2018-02-18T03:36:22.992Z,99031.44
2018-02-18T03:38:50.453Z,99027.98
2018-02-18T03:41:18.537Z,99045.27
2018-02-18T03:43:45.997Z,99050.79
2018-02-18T03:46:13.450Z,99051.55
2018-02-18T03:48:41.209Z,99052.70
2018-02-18T03:51:08.684Z,99067.16
2018-02-18T03:53:36.151Z,99069.65
2018-02-18T03:56:03.893Z,99074.88
2018-02-18T03:58:31.359Z,99076.17
2018-02-18T04:00:58.822Z,99081.39
2018-02-18T04:03:26.588Z,99078.77
2018-02-18T04:05:54.057Z,99081.44
2018-02-18T04:08:21.531Z,99082.78
2018-02-18T04:10:49.280Z,99078.47
2018-02-18T04:13:16.810Z,99082.39
2018-02-18T04:15:44.257Z,99084.36
2018-02-18T04:18:11.969Z,99084.84
2018-02-18T04:20:39.420Z,99090.48
2018-02-18T04:23:06.895Z,99094.23
2018-02-18T04:25:34.650Z,99088.81
2018-02-18T04:28:02.113Z,99087.09
2018-02-18T04:30:29.588Z,99079.37
2018-02-18T04:32:57.599Z,99081.01
2018-02-18T04:35:25.100Z,99082.73
2018-02-18T04:37:52.566Z,99092.27
2018-02-18T04:40:20.535Z,99095.41
2018-02-18T04:42:48.007Z,99098.48
2018-02-18T04:45:15.459Z,99096.66
2018-02-18T04:47:43.310Z,99097.95
2018-02-18T04:50:10.766Z,99107.01
2018-02-18T04:52:38.234Z,99113.17
2018-02-18T04:55:06.323Z,99117.56
2018-02-18T04:57:33.806Z,99118.64
2018-02-18T05:00:01.262Z,99118.21
2018-02-18T05:02:28.993Z,99117.78
2018-02-18T05:04:56.454Z,99123.77
2018-02-18T05:07:23.910Z,99126.56
2018-02-18T05:09:51.681Z,99132.04
2018-02-18T05:12:19.145Z,99132.56
2018-02-18T05:14:47.302Z,99138.08
2018-02-18T05:17:15.298Z,99144.62
2018-02-18T05:19:42.757Z,99141.61
2018-02-18T05:22:10.218Z,99145.48
2018-02-18T05:24:37.941Z,99151.17
2018-02-18T05:27:05.411Z,99154.58
2018-02-18T05:29:32.873Z,99149.45
2018-02-18T05:32:00.677Z,99159.31
2018-02-18T05:34:28.138Z,99158.14
2018-02-18T05:36:55.597Z,99164.45
2018-02-18T05:39:24.589Z,99161.44
2018-02-18T05:41:52.057Z,99170.56
2018-02-18T05:44:19.517Z,99168.84
2018-02-18T05:46:47.685Z,99171.38
2018-02-18T05:49:15.145Z,99170.99
2018-02-18T05:51:42.622Z,99177.80
2018-02-18T05:54:10.540Z,99173.62
2018-02-18T05:56:37.989Z,99183.56
2018-02-18T05:59:05.445Z,99181.69
2018-02-18T06:01:33.272Z,99182.90
2018-02-18T06:04:00.725Z,99183.56
2018-02-18T06:06:28.189Z,99188.11
2018-02-18T06:08:55.950Z,99190.22
2018-02-18T06:11:23.408Z,99198.72
2018-02-18T06:13:50.870Z,99198.21
2018-02-18T06:16:19.245Z,99199.03
2018-02-18T06:18:46.713Z,99205.58
2018-02-18T06:21:14.176Z,99205.02
2018-02-18T06:23:41.937Z,99208.52
2018-02-18T06:26:09.397Z,99200.76
2018-02-18T06:28:36.857Z,99208.66
2018-02-18T06:31:04.619Z,99210.94
2018-02-18T06:33:32.076Z,99213.09
2018-02-18T06:35:59.534Z,99216.66
2018-02-18T06:38:27.302Z,99214.90
2018-02-18T06:40:54.760Z,99219.64
2018-02-18T06:43:22.305Z,99227.27
2018-02-18T06:45:50.027Z,99228.62
2018-02-18T06:48:17.497Z,99232.02
2018-02-18T06:50:44.960Z,99229.83
2018-02-18T06:53:12.635Z,99228.88
2018-02-18T06:55:40.105Z,99241.55
2018-02-18T06:58:07.566Z,99231.50
2018-02-18T07:00:35.657Z,99229.30
2018-02-18T07:03:03.116Z,99237.84
2018-02-18T07:05:30.573Z,99242.97
2018-02-18T07:07:58.289Z,99241.72
2018-02-18T07:10:25.748Z,99249.19
2018-02-18T07:12:53.225Z,99251.30
2018-02-18T07:15:21.060Z,99243.48
2018-02-18T07:17:49.130Z,99246.95
2018-02-18T07:20:16.591Z,99242.16
2018-02-18T07:22:44.346Z,99244.73
2018-02-18T07:25:11.851Z,99258.03
2018-02-18T07:27:39.292Z,99260.18
2018-02-18T07:30:07.037Z,99265.97
2018-02-18T07:32:34.493Z,99261.66
2018-02-18T07:35:01.965Z,99265.20
2018-02-18T07:37:30.341Z,99260.74
2018-02-18T07:39:57.803Z,99260.38
2018-02-18T07:42:25.266Z,99268.55
2018-02-18T07:44:53.026Z,99274.73
2018-02-18T07:47:20.488Z,99272.92
2018-02-18T07:49:47.950Z,99274.77
2018-02-18T07:52:15.670Z,99268.83
2018-02-18T07:54:43.124Z,99269.59
2018-02-18T07:57:10.589Z,99266.86
2018-02-18T07:59:38.276Z,99266.38
2018-02-18T08:02:05.730Z,99269.11
2018-02-18T08:04:33.189Z,99266.66
2018-02-18T08:07:01.080Z,99262.06
2018-02-18T08:09:28.576Z,99266.67
2018-02-18T08:11:56.038Z,99264.78
2018-02-18T08:14:23.777Z,99264.72
2018-02-18T08:16:51.235Z,99260.50
2018-02-18T08:19:19.114Z,99256.36
2018-02-18T08:21:46.762Z,99255.63
2018-02-18T08:24:14.222Z,99255.83
2018-02-18T08:26:41.688Z,99258.05
2018-02-18T08:29:09.454Z,99257.61
2018-02-18T08:31:36.913Z,99255.27
2018-02-18T08:34:04.381Z,99258.81
2018-02-18T08:36:32.132Z,99260.64
2018-02-18T08:38:59.577Z,99261.48
2018-02-18T08:41:27.034Z,99263.37
2018-02-18T08:43:54.883Z,99263.44
2018-02-18T08:46:22.333Z,99262.11
2018-02-18T08:48:49.801Z,99268.31
2018-02-18T08:51:17.505Z,99268.08
2018-02-18T08:53:44.970Z,99265.84
2018-02-18T08:56:12.416Z,99264.23
2018-02-18T08:58:40.213Z,99263.70
2018-02-18T09:01:07.664Z,99261.74
2018-02-18T09:03:35.116Z,99268.48
2018-02-18T09:06:03.197Z,99267.06
2018-02-18T09:08:30.661Z,99266.26
2018-02-18T09:10:58.122Z,99279.56
2018-02-18T09:13:25.879Z,99279.19
2018-02-18T09:15:53.349Z,99288.58
2018-02-18T09:18:20.808Z,99290.32
2018-02-18T09:20:49.174Z,99297.61
2018-02-18T09:23:16.638Z,99294.13
2018-02-18T09:25:44.081Z,99302.39
2018-02-18T09:28:11.908Z,99290.95
2018-02-18T09:30:39.333Z,99306.63
2018-02-18T09:33:06.798Z,99308.72
2018-02-18T09:35:34.472Z,99309.30
2018-02-18T09:38:01.925Z,99309.78
2018-02-18T09:40:29.380Z,99317.69
2018-02-18T09:42:57.546Z,99316.80
2018-02-18T09:45:24.997Z,99318.75
2018-02-18T09:47:52.470Z,99319.87
2018-02-18T09:50:20.244Z,99325.05
2018-02-18T09:52:47.702Z,99331.03
2018-02-18T09:55:15.164Z,99329.34
2018-02-18T09:57:42.822Z,99334.64
2018-02-18T10:00:10.282Z,99335.56
2018-02-18T10:02:37.836Z,99325.17
2018-02-18T10:05:05.601Z,99325.13
2018-02-18T10:07:33.049Z,99331.19
2018-02-18T10:10:00.502Z,99330.78
2018-02-18T10:12:28.288Z,99332.34
2018-02-18T10:14:55.737Z,99332.70
2018-02-18T10:17:23.199Z,99334.78
2018-02-18T10:19:50.905Z,99334.81
2018-02-18T10:22:18.818Z,99338.92
2018-02-18T10:24:46.270Z,99330.80
2018-02-18T10:27:14.286Z,99337.02
2018-02-18T10:29:41.745Z,99332.64
2018-02-18T10:32:09.199Z,99337.80
2018-02-18T10:34:36.965Z,99349.62
2018-02-18T10:37:04.434Z,99342.61
2018-02-18T10:39:31.889Z,99348.96
2018-02-18T10:41:59.660Z,99351.27
2018-02-18T10:44:27.114Z,99351.30
2018-02-18T10:46:54.580Z,99348.97
2018-02-18T10:49:22.220Z,99343.33
2018-02-18T10:51:49.682Z,99346.77
2018-02-18T10:54:17.188Z,99344.54
2018-02-18T10:56:45.251Z,99341.64
2018-02-18T10:59:12.733Z,99350.16
2018-02-18T11:01:40.192Z,99351.78
2018-02-18T11:04:08.025Z,99353.08
2018-02-18T11:06:35.489Z,99338.48
2018-02-18T11:09:02.969Z,99338.14
2018-02-18T11:11:31.166Z,99328.73
2018-02-18T11:13:59.541Z,99328.66
2018-02-18T11:16:26.996Z,99338.98
2018-02-18T11:18:54.945Z,99333.08
2018-02-18T11:21:22.404Z,99329.19
2018-02-18T11:23:51.462Z,99331.11
2018-02-18T11:26:19.172Z,99329.50
2018-02-18T11:28:46.621Z,99320.62
2018-02-18T11:31:14.078Z,99321.97
2018-02-18T11:33:41.893Z,99313.70
2018-02-18T11:36:09.359Z,99316.52
2018-02-18T11:38:36.817Z,99307.69
2018-02-18T11:41:04.498Z,99305.29
2018-02-18T11:43:31.974Z,99314.53
2018-02-18T11:45:59.428Z,99306.00
2018-02-18T11:48:27.266Z,99303.28
2018-02-18T11:50:54.729Z,99296.44
2018-02-18T11:53:22.189Z,99294.91
2018-02-18T11:55:49.918Z,99295.52
2018-02-18T11:58:17.380Z,99296.70
2018-02-18T12:00:44.834Z,99299.95
2018-02-18T12:03:12.882Z,99290.64
2018-02-18T12:05:40.362Z,99294.10
2018-02-18T12:08:07.818Z,99297.41
2018-02-18T12:10:35.588Z,99298.59
2018-02-18T12:13:03.037Z,99294.91
2018-02-18T12:15:30.504Z,99293.41
2018-02-18T12:17:58.568Z,99288.00
2018-02-18T12:20:26.024Z,99286.55
2018-02-18T12:22:53.480Z,99282.07
2018-02-18T12:25:23.720Z,99275.08
2018-02-18T12:27:51.173Z,99274.97
2018-02-18T12:30:18.620Z,99265.73
2018-02-18T12:32:46.429Z,99267.52
2018-02-18T12:35:13.882Z,99260.95
2018-02-18T12:37:41.331Z,99264.58
2018-02-18T12:40:09.099Z,99254.85
2018-02-18T12:42:36.552Z,99255.07
2018-02-18T12:45:04.010Z,99264.52
2018-02-18T12:47:31.802Z,99260.98
2018-02-18T12:49:59.267Z,99264.33
2018-02-18T12:52:26.713Z,99260.69
2018-02-18T12:54:54.708Z,99257.09
2018-02-18T12:57:22.157Z,99258.76
2018-02-18T12:59:49.644Z,99268.74
2018-02-18T13:02:17.486Z,99272.36
2018-02-18T13:04:44.938Z,99264.84
2018-02-18T13:07:12.393Z,99265.28
2018-02-18T13:09:40.105Z,99259.19
2018-02-18T13:12:07.576Z,99261.61
2018-02-18T13:14:35.037Z,99256.80
2018-02-18T13:17:02.849Z,99258.25
2018-02-18T13:19:31.532Z,99256.94
2018-02-18T13:21:58.981Z,99262.27
2018-02-18T13:24:26.760Z,99262.77
2018-02-18T13:26:55.210Z,99256.77
2018-02-18T13:29:22.682Z,99255.45
2018-02-18T13:31:50.534Z,99249.62
2018-02-18T13:34:17.984Z,99250.84
2018-02-18T13:36:45.444Z,99245.36
2018-02-18T13:39:13.357Z,99251.27
2018-02-18T13:41:40.806Z,99248.84
2018-02-18T13:44:08.270Z,99246.42
2018-02-18T13:46:36.042Z,99250.41
2018-02-18T13:49:03.504Z,99247.78
2018-02-18T13:51:31.714Z,99250.98
2018-02-18T13:53:59.656Z,99255.95
2018-02-18T13:56:27.112Z,99258.58
2018-02-18T13:58:54.570Z,99260.86
2018-02-18T14:01:22.654Z,99251.23
2018-02-18T14:03:50.120Z,99247.94
2018-02-18T14:06:17.578Z,99254.19
2018-02-18T14:08:45.347Z,99257.06
2018-02-18T14:11:12.803Z,99259.80
2018-02-18T14:13:40.262Z,99253.65
2018-02-18T14:16:08.025Z,99257.24
2018-02-18T14:18:35.534Z,99256.81
2018-02-18T14:21:02.993Z,99254.30
2018-02-18T14:23:30.758Z,99256.19
2018-02-18T14:25:58.221Z,99252.34
2018-02-18T14:28:26.617Z,99254.45
2018-02-18T14:30:54.318Z,99246.30
2018-02-18T14:33:21.787Z,99253.16
2018-02-18T14:35:49.235Z,99254.31
2018-02-18T14:38:17.009Z,99246.86
2018-02-18T14:40:44.461Z,99258.55
2018-02-18T14:43:23.906Z,99262.83
2018-02-18T14:46:02.960Z,99258.66
2018-02-18T14:48:42.341Z,99261.11
2018-02-18T14:51:21.480Z,99261.74
2018-02-18T14:54:01.073Z,99267.63
2018-02-18T14:56:40.187Z,99262.25
2018-02-18T14:59:07.949Z,99278.77
2018-02-18T15:01:35.405Z,99270.98
2018-02-18T15:04:02.864Z,99279.80
2018-02-18T15:06:30.691Z,99277.45
2018-02-18T15:08:58.153Z,99281.69
2018-02-18T15:11:25.875Z,99278.88
2018-02-18T15:13:53.640Z,99283.31
2018-02-18T15:16:21.106Z,99293.83
2018-02-18T15:18:48.578Z,99292.75
2018-02-18T15:21:16.356Z,99303.23
2018-02-18T15:23:43.809Z,99295.87
2018-02-18T15:26:11.269Z,99295.78
2018-02-18T15:28:39.621Z,99298.69
2018-02-18T15:31:07.093Z,99304.83
2018-02-18T15:33:34.537Z,99301.29
2018-02-18T15:36:02.310Z,99305.75
2018-02-18T15:38:29.783Z,99302.73
2018-02-18T15:40:57.242Z,99311.91
2018-02-18T15:43:24.824Z,99306.25
2018-02-18T15:45:52.293Z,99303.44
2018-02-18T15:48:19.749Z,99300.91
2018-02-18T15:50:47.710Z,99299.64
2018-02-18T15:53:15.159Z,99298.80
2018-02-18T15:55:42.621Z,99295.92
2018-02-18T15:58:10.368Z,99296.67
2018-02-18T16:00:37.822Z,99294.14
2018-02-18T16:03:05.342Z,99296.69
2018-02-18T16:05:33.073Z,99295.41
2018-02-18T16:08:00.716Z,99296.03
2018-02-18T16:10:28.196Z,99298.77
2018-02-18T16:12:56.078Z,99295.13
2018-02-18T16:15:23.528Z,99305.59
2018-02-18T16:17:50.986Z,99305.78
2018-02-18T16:20:19.050Z,99312.17
2018-02-18T16:22:46.493Z,99308.91
2018-02-18T16:25:13.944Z,99312.20
2018-02-18T16:27:41.613Z,99316.14
2018-02-18T16:30:09.581Z,99316.59
2018-02-18T16:32:37.048Z,99322.78
2018-02-18T16:35:05.028Z,99319.36
2018-02-18T16:37:32.474Z,99317.63
2018-02-18T16:39:59.936Z,99310.27
2018-02-18T16:42:27.924Z,99315.44
2018-02-18T16:44:55.394Z,99300.89
2018-02-18T16:47:22.864Z,99309.21
2018-02-18T16:49:50.551Z,99307.94
2018-02-18T16:52:18.010Z,99308.61
2018-02-18T16:54:45.469Z,99304.78
2018-02-18T16:57:13.338Z,99311.66
2018-02-18T16:59:40.794Z,99303.81
2018-02-18T17:02:08.264Z,99307.39
2018-02-18T17:04:36.107Z,99302.95
2018-02-18T17:07:03.568Z,99308.35
2018-02-18T17:09:31.030Z,99317.50
2018-02-18T17:11:58.826Z,99316.67
2018-02-18T17:14:26.295Z,99320.67
2018-02-18T17:16:53.761Z,99324.84
2018-02-18T17:19:21.676Z,99320.84
2018-02-18T17:21:49.136Z,99317.91
2018-02-18T17:24:16.602Z,99314.69
2018-02-18T17:26:44.453Z,99318.02
2018-02-18T17:29:11.915Z,99318.14
2018-02-18T17:31:40.069Z,99315.05
2018-02-18T17:34:08.027Z,99318.45
2018-02-18T17:36:35.684Z,99312.08
2018-02-18T17:39:02.967Z,99312.73
2018-02-18T17:41:31.025Z,99308.41
2018-02-18T17:43:58.491Z,99309.70
2018-02-18T17:46:25.955Z,99305.34
2018-02-18T17:48:54.369Z,99303.55
2018-02-18T17:51:21.829Z,99298.07
2018-02-18T17:53:49.292Z,99300.03
2018-02-18T17:56:17.045Z,99304.65
2018-02-18T17:58:44.512Z,99301.56
2018-02-18T18:01:11.981Z,99299.17
2018-02-18T18:03:39.760Z,99299.06
2018-02-18T18:06:07.217Z,99297.89
2018-02-18T18:08:34.682Z,99298.11
2018-02-18T18:11:02.436Z,99295.52
2018-02-18T18:13:29.920Z,99297.83
2018-02-18T18:15:57.386Z,99299.40
2018-02-18T18:18:25.412Z,99300.20
2018-02-18T18:20:52.864Z,99295.94
2018-02-18T18:23:20.338Z,99296.97
2018-02-18T18:25:47.971Z,99301.89
2018-02-18T18:28:15.426Z,99294.70
2018-02-18T18:30:42.882Z,99292.86
2018-02-18T18:33:11.970Z,99289.14
2018-02-18T18:35:39.434Z,99293.13
2018-02-18T18:38:06.895Z,99284.01
2018-02-18T18:40:34.709Z,99287.94
2018-02-18T18:43:02.158Z,99284.60
2018-02-18T18:45:29.618Z,99281.62
2018-02-18T18:47:57.443Z,99284.54
2018-02-18T18:50:24.912Z,99280.55
2018-02-18T18:52:52.372Z,99274.81
2018-02-18T18:55:20.082Z,99277.63
2018-02-18T18:57:47.543Z,99281.36
2018-02-18T19:00:15.013Z,99281.56
2018-02-18T19:02:42.772Z,99277.73
2018-02-18T19:05:10.232Z,99278.17
2018-02-18T19:07:37.701Z,99273.90
2018-02-18T19:10:05.469Z,99271.80
2018-02-18T19:12:32.938Z,99266.83
2018-02-18T19:15:00.393Z,99268.55
2018-02-18T19:17:28.130Z,99266.28
2018-02-18T19:19:55.613Z,99267.74
2018-02-18T19:22:23.065Z,99267.14
2018-02-18T19:24:51.141Z,99263.00
2018-02-18T19:27:18.629Z,99267.59
2018-02-18T19:29:46.087Z,99259.96
2018-02-18T19:32:13.820Z,99263.20
2018-02-18T19:34:41.669Z,99268.34
2018-02-18T19:37:09.152Z,99269.41
2018-02-18T19:39:37.133Z,99272.83
2018-02-18T19:42:04.595Z,99265.15
2018-02-18T19:44:32.052Z,99267.84
2018-02-18T19:46:59.762Z,99262.70
2018-02-18T19:49:27.221Z,99248.52
2018-02-18T19:51:54.675Z,99258.02
2018-02-18T19:54:22.519Z,99256.55
2018-02-18T19:56:49.972Z,99253.87
2018-02-18T19:59:17.423Z,99248.62
2018-02-18T20:01:45.186Z,99247.64
2018-02-18T20:04:12.636Z,99243.95
2018-02-18T20:06:40.084Z,99249.95
2018-02-18T20:09:08.171Z,99250.66
2018-02-18T20:11:35.629Z,99248.88
2018-02-18T20:14:03.081Z,99253.66
2018-02-18T20:16:30.860Z,99249.95
2018-02-18T20:18:58.320Z,99249.48
2018-02-18T20:21:25.777Z,99245.97
2018-02-18T20:23:53.547Z,99239.69
2018-02-18T20:26:21.003Z,99240.04
2018-02-18T20:28:48.467Z,99235.83
2018-02-18T20:31:16.241Z,99223.55
2018-02-18T20:33:43.706Z,99225.92
2018-02-18T20:36:11.534Z,99218.95
2018-02-18T20:38:39.325Z,99211.82
2018-02-18T20:41:06.783Z,99216.05
2018-02-18T20:43:34.232Z,99211.42
2018-02-18T20:46:01.967Z,99204.67
2018-02-18T20:48:29.426Z,99205.70
2018-02-18T20:50:56.881Z,99204.44
2018-02-18T20:53:24.660Z,99201.16
2018-02-18T20:55:52.124Z,99203.59
2018-02-18T20:58:19.722Z,99197.05
2018-02-18T21:00:47.366Z,99192.96
2018-02-18T21:03:14.824Z,99189.70
2018-02-18T21:05:42.289Z,99191.53
2018-02-18T21:08:10.009Z,99189.31
2018-02-18T21:10:37.487Z,99179.72
2018-02-18T21:13:05.162Z,99179.94
2018-02-18T21:15:32.833Z,99178.65
2018-02-18T21:18:00.286Z,99179.41
2018-02-18T21:20:27.754Z,99176.64
2018-02-18T21:22:55.666Z,99183.72
2018-02-18T21:25:23.118Z,99181.40
2018-02-18T21:27:50.571Z,99181.51
2018-02-18T21:30:18.348Z,99178.80
2018-02-18T21:32:45.797Z,99176.94
2018-02-18T21:35:13.254Z,99174.62
2018-02-18T21:37:41.497Z,99177.94
2018-02-18T21:40:08.958Z,99175.80
2018-02-18T21:42:36.416Z,99176.69
2018-02-18T21:45:04.335Z,99167.55
2018-02-18T21:47:31.797Z,99169.94
2018-02-18T21:49:59.308Z,99172.78
2018-02-18T21:52:27.666Z,99167.43
2018-02-18T21:54:55.658Z,99163.55
2018-02-18T21:57:23.116Z,99150.99
2018-02-18T21:59:50.986Z,99155.45
2018-02-18T22:02:18.438Z,99158.16
2018-02-18T22:04:46.225Z,99159.89
2018-02-18T22:07:13.926Z,99151.50
2018-02-18T22:09:41.371Z,99145.82
2018-02-18T22:12:08.827Z,99150.27
2018-02-18T22:14:36.804Z,99147.78
2018-02-18T22:17:04.248Z,99143.84
2018-02-18T22:19:31.693Z,99143.03
2018-02-18T22:21:59.604Z,99138.14
2018-02-18T22:24:27.078Z,99138.16
2018-02-18T22:26:54.528Z,99136.68
2018-02-18T22:29:22.297Z,99133.75
2018-02-18T22:31:49.753Z,99135.80
2018-02-18T22:34:17.218Z,99131.45
2018-02-18T22:36:44.934Z,99131.31
2018-02-18T22:39:12.523Z,99121.78
2018-02-18T22:41:39.970Z,99124.01
2018-02-18T22:44:07.927Z,99113.49
2018-02-18T22:46:35.381Z,99111.34
2018-02-18T22:49:02.847Z,99111.77
2018-02-18T22:51:30.478Z,99107.45
2018-02-18T22:53:57.921Z,99104.48
2018-02-18T22:56:25.370Z,99102.21
2018-02-18T22:58:53.362Z,99103.46
2018-02-18T23:01:20.816Z,99100.47
2018-02-18T23:03:48.363Z,99097.47
2018-02-18T23:06:16.100Z,99096.01
2018-02-18T23:08:43.563Z,99090.23
2018-02-18T23:11:11.019Z,99091.05
2018-02-18T23:13:39.031Z,99087.46
2018-02-18T23:16:06.478Z,99084.31
2018-02-18T23:18:33.929Z,99084.39
2018-02-18T23:21:09.398Z,99089.27
2018-02-18T23:23:36.864Z,99080.45
2018-02-18T23:26:04.307Z,99083.08
2018-02-18T23:28:32.159Z,99082.55
2018-02-18T23:30:59.616Z,99076.06
2018-02-18T23:33:27.070Z,99075.08
2018-02-18T23:35:54.791Z,99071.94
2018-02-18T23:38:22.244Z,99065.09
2018-02-18T23:40:50.373Z,99063.84
2018-02-18T23:43:18.078Z,99064.21
2018-02-18T23:45:45.540Z,99063.04
2018-02-18T23:48:12.993Z,99046.70
2018-02-18T23:50:40.765Z,99052.98
2018-02-18T23:53:08.218Z,99044.83
2018-02-18T23:55:35.674Z,99050.32
2018-02-18T23:58:03.458Z,99046.06
